sensor_id;sensor_type;location;lat;lon;timestamp;P1;durP1;ratioP1;P2;durP2;ratioP2
19251;SDS011;9760;50.944;5.304;2022-12-07T00:01:46;44.23;;;16.23;;
19251;SDS011;9760;50.944;5.304;2022-12-07T00:04:13;30.83;;;15.07;;
19251;SDS011;9760;50.944;5.304;2022-12-07T00:06:43;27.67;;;14.40;;
19251;SDS011;9760;50.944;5.304;2022-12-07T00:09:14;33.90;;;15.60;;
19251;SDS011;9760;50.944;5.304;2022-12-07T00:11:41;30.87;;;15.80;;
19251;SDS011;9760;50.944;5.304;2022-12-07T00:14:13;32.07;;;15.63;;
19251;SDS011;9760;50.944;5.304;2022-12-07T00:16:40;32.70;;;15.30;;
19251;SDS011;9760;50.944;5.304;2022-12-07T00:19:06;34.17;;;16.27;;
19251;SDS011;9760;50.944;5.304;2022-12-07T00:21:33;31.50;;;14.63;;
19251;SDS011;9760;50.944;5.304;2022-12-07T00:24:00;31.43;;;16.33;;
19251;SDS011;9760;50.944;5.304;2022-12-07T00:26:28;33.27;;;16.43;;
19251;SDS011;9760;50.944;5.304;2022-12-07T00:29:05;36.50;;;17.20;;
19251;SDS011;9760;50.944;5.304;2022-12-07T00:31:41;35.87;;;16.13;;
19251;SDS011;9760;50.944;5.304;2022-12-07T00:34:09;40.93;;;17.27;;
19251;SDS011;9760;50.944;5.304;2022-12-07T00:36:41;38.83;;;16.97;;
19251;SDS011;9760;50.944;5.304;2022-12-07T00:39:06;41.97;;;17.67;;
19251;SDS011;9760;50.944;5.304;2022-12-07T00:41:32;32.23;;;15.93;;
19251;SDS011;9760;50.944;5.304;2022-12-07T00:43:57;32.23;;;16.60;;
19251;SDS011;9760;50.944;5.304;2022-12-07T00:46:23;38.13;;;17.13;;
19251;SDS011;9760;50.944;5.304;2022-12-07T00:48:50;35.43;;;16.77;;
19251;SDS011;9760;50.944;5.304;2022-12-07T00:51:17;37.10;;;17.83;;
19251;SDS011;9760;50.944;5.304;2022-12-07T00:53:44;38.60;;;17.40;;
19251;SDS011;9760;50.944;5.304;2022-12-07T00:56:13;34.37;;;17.87;;
19251;SDS011;9760;50.944;5.304;2022-12-07T00:58:40;36.87;;;17.27;;
19251;SDS011;9760;50.944;5.304;2022-12-07T01:01:06;43.27;;;17.20;;
19251;SDS011;9760;50.944;5.304;2022-12-07T01:03:34;40.67;;;17.40;;
19251;SDS011;9760;50.944;5.304;2022-12-07T01:05:59;40.03;;;18.10;;
19251;SDS011;9760;50.944;5.304;2022-12-07T01:08:26;34.90;;;16.97;;
19251;SDS011;9760;50.944;5.304;2022-12-07T01:13:24;34.57;;;16.73;;
19251;SDS011;9760;50.944;5.304;2022-12-07T01:15:50;38.53;;;17.93;;
19251;SDS011;9760;50.944;5.304;2022-12-07T01:18:15;33.87;;;17.30;;
19251;SDS011;9760;50.944;5.304;2022-12-07T01:20:41;37.13;;;17.50;;
19251;SDS011;9760;50.944;5.304;2022-12-07T01:23:07;37.03;;;17.03;;
19251;SDS011;9760;50.944;5.304;2022-12-07T01:25:33;39.97;;;18.27;;
19251;SDS011;9760;50.944;5.304;2022-12-07T01:27:58;33.83;;;16.67;;
19251;SDS011;9760;50.944;5.304;2022-12-07T01:30:24;34.47;;;18.10;;
19251;SDS011;9760;50.944;5.304;2022-12-07T01:32:49;42.90;;;18.13;;
19251;SDS011;9760;50.944;5.304;2022-12-07T01:35:15;40.10;;;17.33;;
19251;SDS011;9760;50.944;5.304;2022-12-07T01:37:41;34.30;;;17.40;;
19251;SDS011;9760;50.944;5.304;2022-12-07T01:40:07;33.73;;;17.97;;
19251;SDS011;9760;50.944;5.304;2022-12-07T01:42:33;40.53;;;17.43;;
19251;SDS011;9760;50.944;5.304;2022-12-07T01:47:44;32.70;;;16.53;;
19251;SDS011;9760;50.944;5.304;2022-12-07T01:50:16;35.60;;;17.80;;
19251;SDS011;9760;50.944;5.304;2022-12-07T01:52:42;33.97;;;16.93;;
19251;SDS011;9760;50.944;5.304;2022-12-07T01:55:12;30.37;;;16.20;;
19251;SDS011;9760;50.944;5.304;2022-12-07T01:57:40;32.90;;;17.60;;
19251;SDS011;9760;50.944;5.304;2022-12-07T02:00:12;34.63;;;16.70;;
19251;SDS011;9760;50.944;5.304;2022-12-07T02:02:42;36.30;;;15.57;;
19251;SDS011;9760;50.944;5.304;2022-12-07T02:05:12;30.57;;;15.80;;
19251;SDS011;9760;50.944;5.304;2022-12-07T02:07:38;41.03;;;17.20;;
19251;SDS011;9760;50.944;5.304;2022-12-07T02:10:14;36.33;;;17.10;;
19251;SDS011;9760;50.944;5.304;2022-12-07T02:12:41;33.23;;;16.13;;
19251;SDS011;9760;50.944;5.304;2022-12-07T02:15:10;31.47;;;17.13;;
19251;SDS011;9760;50.944;5.304;2022-12-07T02:17:38;30.80;;;15.60;;
19251;SDS011;9760;50.944;5.304;2022-12-07T02:31:01;36.93;;;19.03;;
19251;SDS011;9760;50.944;5.304;2022-12-07T02:33:37;35.60;;;17.97;;
19251;SDS011;9760;50.944;5.304;2022-12-07T02:36:10;35.60;;;17.70;;
19251;SDS011;9760;50.944;5.304;2022-12-07T02:41:30;31.80;;;16.83;;
19251;SDS011;9760;50.944;5.304;2022-12-07T02:44:06;34.13;;;16.57;;
19251;SDS011;9760;50.944;5.304;2022-12-07T02:46:39;35.73;;;17.03;;
19251;SDS011;9760;50.944;5.304;2022-12-07T02:49:07;36.37;;;17.83;;
19251;SDS011;9760;50.944;5.304;2022-12-07T02:51:38;36.23;;;17.77;;
19251;SDS011;9760;50.944;5.304;2022-12-07T02:54:10;38.70;;;17.77;;
19251;SDS011;9760;50.944;5.304;2022-12-07T03:04:46;38.13;;;18.97;;
19251;SDS011;9760;50.944;5.304;2022-12-07T03:09:53;44.77;;;19.30;;
19251;SDS011;9760;50.944;5.304;2022-12-07T03:12:37;41.37;;;20.17;;
19251;SDS011;9760;50.944;5.304;2022-12-07T03:15:29;38.93;;;19.83;;
19251;SDS011;9760;50.944;5.304;2022-12-07T03:18:05;45.17;;;20.67;;
19251;SDS011;9760;50.944;5.304;2022-12-07T03:20:32;37.43;;;18.47;;
19251;SDS011;9760;50.944;5.304;2022-12-07T03:23:03;39.77;;;19.80;;
19251;SDS011;9760;50.944;5.304;2022-12-07T03:25:31;44.10;;;20.23;;
19251;SDS011;9760;50.944;5.304;2022-12-07T03:28:00;41.47;;;20.00;;
19251;SDS011;9760;50.944;5.304;2022-12-07T03:33:33;49.77;;;20.20;;
19251;SDS011;9760;50.944;5.304;2022-12-07T03:36:26;44.30;;;20.00;;
19251;SDS011;9760;50.944;5.304;2022-12-07T03:39:04;36.20;;;19.63;;
19251;SDS011;9760;50.944;5.304;2022-12-07T03:41:37;40.07;;;20.37;;
19251;SDS011;9760;50.944;5.304;2022-12-07T03:44:04;42.60;;;20.37;;
19251;SDS011;9760;50.944;5.304;2022-12-07T03:49:23;41.93;;;19.47;;
19251;SDS011;9760;50.944;5.304;2022-12-07T03:52:02;39.87;;;20.90;;
19251;SDS011;9760;50.944;5.304;2022-12-07T03:57:30;43.93;;;21.93;;
19251;SDS011;9760;50.944;5.304;2022-12-07T03:59:59;39.37;;;22.03;;
19251;SDS011;9760;50.944;5.304;2022-12-07T04:02:28;45.63;;;21.60;;
19251;SDS011;9760;50.944;5.304;2022-12-07T04:04:54;44.83;;;21.43;;
19251;SDS011;9760;50.944;5.304;2022-12-07T04:07:21;52.13;;;27.73;;
19251;SDS011;9760;50.944;5.304;2022-12-07T04:09:46;44.40;;;21.57;;
19251;SDS011;9760;50.944;5.304;2022-12-07T04:12:12;40.33;;;21.90;;
19251;SDS011;9760;50.944;5.304;2022-12-07T04:14:38;45.70;;;21.13;;
19251;SDS011;9760;50.944;5.304;2022-12-07T04:17:03;36.83;;;20.40;;
19251;SDS011;9760;50.944;5.304;2022-12-07T04:19:30;47.40;;;21.80;;
19251;SDS011;9760;50.944;5.304;2022-12-07T04:21:58;43.80;;;20.50;;
19251;SDS011;9760;50.944;5.304;2022-12-07T04:24:25;48.23;;;21.90;;
19251;SDS011;9760;50.944;5.304;2022-12-07T04:26:51;43.23;;;21.67;;
19251;SDS011;9760;50.944;5.304;2022-12-07T04:29:17;42.10;;;21.27;;
19251;SDS011;9760;50.944;5.304;2022-12-07T04:31:43;48.20;;;21.90;;
19251;SDS011;9760;50.944;5.304;2022-12-07T04:34:10;44.20;;;21.87;;
19251;SDS011;9760;50.944;5.304;2022-12-07T04:36:36;49.73;;;22.27;;
19251;SDS011;9760;50.944;5.304;2022-12-07T04:39:03;45.40;;;22.00;;
19251;SDS011;9760;50.944;5.304;2022-12-07T04:41:30;43.87;;;21.87;;
19251;SDS011;9760;50.944;5.304;2022-12-07T04:43:57;44.60;;;21.23;;
19251;SDS011;9760;50.944;5.304;2022-12-07T04:46:24;48.60;;;23.23;;
19251;SDS011;9760;50.944;5.304;2022-12-07T04:48:51;53.07;;;23.57;;
19251;SDS011;9760;50.944;5.304;2022-12-07T04:51:21;47.50;;;23.20;;
19251;SDS011;9760;50.944;5.304;2022-12-07T04:53:49;48.03;;;24.57;;
19251;SDS011;9760;50.944;5.304;2022-12-07T04:56:16;52.63;;;23.70;;
19251;SDS011;9760;50.944;5.304;2022-12-07T04:58:42;45.53;;;22.87;;
19251;SDS011;9760;50.944;5.304;2022-12-07T05:01:09;48.10;;;23.23;;
19251;SDS011;9760;50.944;5.304;2022-12-07T05:03:36;50.47;;;22.83;;
19251;SDS011;9760;50.944;5.304;2022-12-07T05:06:02;39.57;;;21.03;;
19251;SDS011;9760;50.944;5.304;2022-12-07T05:08:28;48.27;;;22.00;;
19251;SDS011;9760;50.944;5.304;2022-12-07T05:10:54;44.10;;;20.43;;
19251;SDS011;9760;50.944;5.304;2022-12-07T05:13:19;42.63;;;22.47;;
19251;SDS011;9760;50.944;5.304;2022-12-07T05:15:46;49.13;;;23.47;;
19251;SDS011;9760;50.944;5.304;2022-12-07T05:18:12;51.43;;;23.40;;
19251;SDS011;9760;50.944;5.304;2022-12-07T05:20:41;44.40;;;22.03;;
19251;SDS011;9760;50.944;5.304;2022-12-07T05:23:07;44.30;;;21.43;;
19251;SDS011;9760;50.944;5.304;2022-12-07T05:25:32;54.03;;;25.03;;
19251;SDS011;9760;50.944;5.304;2022-12-07T05:27:59;48.73;;;23.80;;
19251;SDS011;9760;50.944;5.304;2022-12-07T05:30:25;57.40;;;24.23;;
19251;SDS011;9760;50.944;5.304;2022-12-07T05:32:51;60.93;;;23.63;;
19251;SDS011;9760;50.944;5.304;2022-12-07T05:35:17;49.00;;;22.77;;
19251;SDS011;9760;50.944;5.304;2022-12-07T05:37:43;48.07;;;22.83;;
19251;SDS011;9760;50.944;5.304;2022-12-07T05:40:10;45.70;;;24.20;;
19251;SDS011;9760;50.944;5.304;2022-12-07T05:42:36;53.80;;;24.50;;
19251;SDS011;9760;50.944;5.304;2022-12-07T05:45:02;56.00;;;23.43;;
19251;SDS011;9760;50.944;5.304;2022-12-07T05:47:28;48.30;;;24.60;;
19251;SDS011;9760;50.944;5.304;2022-12-07T05:49:54;53.23;;;23.37;;
19251;SDS011;9760;50.944;5.304;2022-12-07T05:52:20;48.43;;;23.23;;
19251;SDS011;9760;50.944;5.304;2022-12-07T05:54:45;50.10;;;24.73;;
19251;SDS011;9760;50.944;5.304;2022-12-07T05:57:11;52.93;;;25.50;;
19251;SDS011;9760;50.944;5.304;2022-12-07T05:59:37;51.80;;;23.83;;
19251;SDS011;9760;50.944;5.304;2022-12-07T06:02:03;48.67;;;23.20;;
19251;SDS011;9760;50.944;5.304;2022-12-07T06:04:31;54.20;;;23.20;;
19251;SDS011;9760;50.944;5.304;2022-12-07T06:06:59;52.10;;;24.10;;
19251;SDS011;9760;50.944;5.304;2022-12-07T06:09:25;51.90;;;26.03;;
19251;SDS011;9760;50.944;5.304;2022-12-07T06:11:52;52.70;;;23.97;;
19251;SDS011;9760;50.944;5.304;2022-12-07T06:14:36;55.30;;;23.13;;
19251;SDS011;9760;50.944;5.304;2022-12-07T06:17:02;50.27;;;24.23;;
19251;SDS011;9760;50.944;5.304;2022-12-07T06:19:28;51.80;;;23.27;;
19251;SDS011;9760;50.944;5.304;2022-12-07T06:21:54;49.17;;;23.53;;
19251;SDS011;9760;50.944;5.304;2022-12-07T06:24:20;57.23;;;24.63;;
19251;SDS011;9760;50.944;5.304;2022-12-07T06:26:46;56.57;;;25.13;;
19251;SDS011;9760;50.944;5.304;2022-12-07T06:29:12;50.07;;;24.20;;
19251;SDS011;9760;50.944;5.304;2022-12-07T06:31:38;55.10;;;25.53;;
19251;SDS011;9760;50.944;5.304;2022-12-07T06:34:05;50.47;;;25.33;;
19251;SDS011;9760;50.944;5.304;2022-12-07T06:36:36;57.03;;;27.00;;
19251;SDS011;9760;50.944;5.304;2022-12-07T06:39:02;54.47;;;25.87;;
19251;SDS011;9760;50.944;5.304;2022-12-07T06:41:28;56.13;;;25.70;;
19251;SDS011;9760;50.944;5.304;2022-12-07T06:43:54;60.40;;;24.60;;
19251;SDS011;9760;50.944;5.304;2022-12-07T06:46:20;60.60;;;26.73;;
19251;SDS011;9760;50.944;5.304;2022-12-07T06:48:45;53.33;;;25.97;;
19251;SDS011;9760;50.944;5.304;2022-12-07T06:51:11;58.83;;;25.63;;
19251;SDS011;9760;50.944;5.304;2022-12-07T06:53:37;50.70;;;25.07;;
19251;SDS011;9760;50.944;5.304;2022-12-07T06:56:03;65.87;;;27.20;;
19251;SDS011;9760;50.944;5.304;2022-12-07T06:58:29;52.57;;;25.53;;
19251;SDS011;9760;50.944;5.304;2022-12-07T07:00:55;54.30;;;25.40;;
19251;SDS011;9760;50.944;5.304;2022-12-07T07:03:21;53.60;;;25.93;;
19251;SDS011;9760;50.944;5.304;2022-12-07T07:05:47;57.07;;;25.23;;
19251;SDS011;9760;50.944;5.304;2022-12-07T07:08:13;57.60;;;26.33;;
19251;SDS011;9760;50.944;5.304;2022-12-07T07:10:39;56.30;;;24.23;;
19251;SDS011;9760;50.944;5.304;2022-12-07T07:13:05;57.40;;;24.70;;
19251;SDS011;9760;50.944;5.304;2022-12-07T07:15:31;56.57;;;25.30;;
19251;SDS011;9760;50.944;5.304;2022-12-07T07:17:58;52.33;;;24.57;;
19251;SDS011;9760;50.944;5.304;2022-12-07T07:20:23;60.07;;;25.73;;
19251;SDS011;9760;50.944;5.304;2022-12-07T07:22:49;55.20;;;26.00;;
19251;SDS011;9760;50.944;5.304;2022-12-07T07:25:15;56.47;;;25.97;;
19251;SDS011;9760;50.944;5.304;2022-12-07T07:27:41;58.40;;;24.97;;
19251;SDS011;9760;50.944;5.304;2022-12-07T07:30:07;53.20;;;24.23;;
19251;SDS011;9760;50.944;5.304;2022-12-07T07:32:33;52.10;;;23.67;;
19251;SDS011;9760;50.944;5.304;2022-12-07T07:34:59;51.13;;;24.70;;
19251;SDS011;9760;50.944;5.304;2022-12-07T07:37:25;52.97;;;24.07;;
19251;SDS011;9760;50.944;5.304;2022-12-07T07:39:51;54.03;;;23.33;;
19251;SDS011;9760;50.944;5.304;2022-12-07T07:42:16;53.00;;;24.67;;
19251;SDS011;9760;50.944;5.304;2022-12-07T07:44:42;56.10;;;27.40;;
19251;SDS011;9760;50.944;5.304;2022-12-07T07:47:08;58.93;;;25.63;;
19251;SDS011;9760;50.944;5.304;2022-12-07T07:49:33;46.13;;;23.50;;
19251;SDS011;9760;50.944;5.304;2022-12-07T07:51:59;46.50;;;23.07;;
19251;SDS011;9760;50.944;5.304;2022-12-07T07:54:25;53.27;;;23.73;;
19251;SDS011;9760;50.944;5.304;2022-12-07T07:56:50;48.10;;;22.83;;
19251;SDS011;9760;50.944;5.304;2022-12-07T07:59:17;55.10;;;23.00;;
19251;SDS011;9760;50.944;5.304;2022-12-07T08:01:43;52.73;;;23.70;;
19251;SDS011;9760;50.944;5.304;2022-12-07T08:04:08;57.33;;;23.90;;
19251;SDS011;9760;50.944;5.304;2022-12-07T08:06:34;51.60;;;22.93;;
19251;SDS011;9760;50.944;5.304;2022-12-07T08:09:00;46.13;;;22.83;;
19251;SDS011;9760;50.944;5.304;2022-12-07T08:11:25;50.33;;;23.93;;
19251;SDS011;9760;50.944;5.304;2022-12-07T08:13:51;50.33;;;24.73;;
19251;SDS011;9760;50.944;5.304;2022-12-07T08:16:16;56.73;;;24.30;;
19251;SDS011;9760;50.944;5.304;2022-12-07T08:18:43;63.70;;;25.27;;
19251;SDS011;9760;50.944;5.304;2022-12-07T08:21:09;52.60;;;25.30;;
19251;SDS011;9760;50.944;5.304;2022-12-07T08:23:37;50.50;;;24.83;;
19251;SDS011;9760;50.944;5.304;2022-12-07T08:26:03;52.77;;;24.47;;
19251;SDS011;9760;50.944;5.304;2022-12-07T08:28:30;56.23;;;25.40;;
19251;SDS011;9760;50.944;5.304;2022-12-07T08:31:00;52.77;;;25.23;;
19251;SDS011;9760;50.944;5.304;2022-12-07T08:33:33;63.07;;;27.37;;
19251;SDS011;9760;50.944;5.304;2022-12-07T08:36:03;62.60;;;26.53;;
19251;SDS011;9760;50.944;5.304;2022-12-07T08:38:30;55.50;;;25.10;;
19251;SDS011;9760;50.944;5.304;2022-12-07T08:40:56;57.50;;;24.67;;
19251;SDS011;9760;50.944;5.304;2022-12-07T08:43:23;51.67;;;24.30;;
19251;SDS011;9760;50.944;5.304;2022-12-07T08:45:52;51.33;;;25.47;;
19251;SDS011;9760;50.944;5.304;2022-12-07T08:48:53;57.87;;;25.50;;
19251;SDS011;9760;50.944;5.304;2022-12-07T08:51:22;52.03;;;25.83;;
19251;SDS011;9760;50.944;5.304;2022-12-07T08:53:49;57.47;;;26.90;;
19251;SDS011;9760;50.944;5.304;2022-12-07T08:56:16;65.87;;;28.57;;
19251;SDS011;9760;50.944;5.304;2022-12-07T08:58:42;63.60;;;27.13;;
19251;SDS011;9760;50.944;5.304;2022-12-07T09:01:08;62.00;;;27.10;;
19251;SDS011;9760;50.944;5.304;2022-12-07T09:03:34;52.00;;;24.57;;
19251;SDS011;9760;50.944;5.304;2022-12-07T09:06:00;54.93;;;24.30;;
19251;SDS011;9760;50.944;5.304;2022-12-07T09:08:26;61.40;;;24.87;;
19251;SDS011;9760;50.944;5.304;2022-12-07T09:10:58;58.43;;;24.40;;
19251;SDS011;9760;50.944;5.304;2022-12-07T09:13:23;51.47;;;24.47;;
19251;SDS011;9760;50.944;5.304;2022-12-07T09:15:49;50.20;;;21.47;;
19251;SDS011;9760;50.944;5.304;2022-12-07T09:18:15;49.13;;;22.80;;
19251;SDS011;9760;50.944;5.304;2022-12-07T09:20:40;47.73;;;22.03;;
19251;SDS011;9760;50.944;5.304;2022-12-07T09:23:06;52.20;;;21.67;;
19251;SDS011;9760;50.944;5.304;2022-12-07T09:25:32;47.73;;;19.83;;
19251;SDS011;9760;50.944;5.304;2022-12-07T09:27:59;39.77;;;17.40;;
19251;SDS011;9760;50.944;5.304;2022-12-07T09:30:25;42.90;;;17.20;;
19251;SDS011;9760;50.944;5.304;2022-12-07T09:32:58;40.53;;;16.63;;
19251;SDS011;9760;50.944;5.304;2022-12-07T09:35:23;34.80;;;15.10;;
19251;SDS011;9760;50.944;5.304;2022-12-07T09:37:49;31.57;;;15.70;;
19251;SDS011;9760;50.944;5.304;2022-12-07T09:40:16;33.13;;;14.90;;
19251;SDS011;9760;50.944;5.304;2022-12-07T09:42:44;38.63;;;15.93;;
19251;SDS011;9760;50.944;5.304;2022-12-07T09:45:15;33.57;;;14.57;;
19251;SDS011;9760;50.944;5.304;2022-12-07T09:47:51;36.00;;;14.80;;
19251;SDS011;9760;50.944;5.304;2022-12-07T09:50:21;33.63;;;14.07;;
19251;SDS011;9760;50.944;5.304;2022-12-07T09:52:49;30.40;;;13.23;;
19251;SDS011;9760;50.944;5.304;2022-12-07T09:55:18;28.83;;;12.40;;
19251;SDS011;9760;50.944;5.304;2022-12-07T09:57:47;25.30;;;11.97;;
19251;SDS011;9760;50.944;5.304;2022-12-07T10:00:14;31.23;;;15.97;;
19251;SDS011;9760;50.944;5.304;2022-12-07T10:03:03;29.33;;;14.57;;
19251;SDS011;9760;50.944;5.304;2022-12-07T10:05:41;34.40;;;13.13;;
19251;SDS011;9760;50.944;5.304;2022-12-07T10:08:11;30.10;;;12.70;;
19251;SDS011;9760;50.944;5.304;2022-12-07T10:10:37;28.77;;;14.33;;
19251;SDS011;9760;50.944;5.304;2022-12-07T10:15:48;19.87;;;10.40;;
19251;SDS011;9760;50.944;5.304;2022-12-07T10:18:29;25.27;;;10.87;;
19251;SDS011;9760;50.944;5.304;2022-12-07T10:23:36;20.33;;;10.20;;
19251;SDS011;9760;50.944;5.304;2022-12-07T10:29:12;18.70;;;9.07;;
19251;SDS011;9760;50.944;5.304;2022-12-07T10:32:00;18.07;;;8.90;;
19251;SDS011;9760;50.944;5.304;2022-12-07T10:34:33;21.57;;;9.10;;
19251;SDS011;9760;50.944;5.304;2022-12-07T10:39:49;20.17;;;7.67;;
19251;SDS011;9760;50.944;5.304;2022-12-07T10:42:20;30.23;;;12.13;;
19251;SDS011;9760;50.944;5.304;2022-12-07T10:47:45;27.10;;;9.53;;
19251;SDS011;9760;50.944;5.304;2022-12-07T10:53:05;22.10;;;8.83;;
19251;SDS011;9760;50.944;5.304;2022-12-07T11:01:52;32.67;;;9.17;;
19251;SDS011;9760;50.944;5.304;2022-12-07T11:33:53;12.57;;;5.33;;
19251;SDS011;9760;50.944;5.304;2022-12-07T11:36:46;13.93;;;5.57;;
19251;SDS011;9760;50.944;5.304;2022-12-07T11:41:43;13.10;;;5.10;;
19251;SDS011;9760;50.944;5.304;2022-12-07T11:47:05;12.63;;;5.00;;
19251;SDS011;9760;50.944;5.304;2022-12-07T11:49:53;16.53;;;4.73;;
19251;SDS011;9760;50.944;5.304;2022-12-07T11:52:22;19.97;;;5.23;;
19251;SDS011;9760;50.944;5.304;2022-12-07T11:55:19;16.37;;;4.27;;
19251;SDS011;9760;50.944;5.304;2022-12-07T12:01:11;9.50;;;3.93;;
19251;SDS011;9760;50.944;5.304;2022-12-07T12:03:44;9.50;;;4.40;;
19251;SDS011;9760;50.944;5.304;2022-12-07T12:06:15;12.40;;;4.17;;
19251;SDS011;9760;50.944;5.304;2022-12-07T12:08:42;12.60;;;4.57;;
19251;SDS011;9760;50.944;5.304;2022-12-07T12:19:59;14.57;;;4.60;;
19251;SDS011;9760;50.944;5.304;2022-12-07T12:22:38;12.40;;;4.20;;
19251;SDS011;9760;50.944;5.304;2022-12-07T12:25:07;13.33;;;4.87;;
19251;SDS011;9760;50.944;5.304;2022-12-07T12:27:54;13.10;;;4.80;;
19251;SDS011;9760;50.944;5.304;2022-12-07T12:33:01;10.50;;;4.10;;
19251;SDS011;9760;50.944;5.304;2022-12-07T12:35:30;10.23;;;4.03;;
19251;SDS011;9760;50.944;5.304;2022-12-07T12:40:50;8.40;;;3.47;;
19251;SDS011;9760;50.944;5.304;2022-12-07T12:48:56;8.43;;;2.63;;
19251;SDS011;9760;50.944;5.304;2022-12-07T12:51:39;9.07;;;3.03;;
19251;SDS011;9760;50.944;5.304;2022-12-07T12:54:14;10.50;;;3.07;;
19251;SDS011;9760;50.944;5.304;2022-12-07T12:56:46;10.47;;;3.10;;
19251;SDS011;9760;50.944;5.304;2022-12-07T12:59:32;11.23;;;3.63;;
19251;SDS011;9760;50.944;5.304;2022-12-07T13:02:08;6.67;;;2.47;;
19251;SDS011;9760;50.944;5.304;2022-12-07T13:13:02;7.73;;;2.73;;
19251;SDS011;9760;50.944;5.304;2022-12-07T13:15:36;8.57;;;2.70;;
19251;SDS011;9760;50.944;5.304;2022-12-07T13:20:54;11.60;;;2.80;;
19251;SDS011;9760;50.944;5.304;2022-12-07T13:23:33;8.53;;;3.10;;
19251;SDS011;9760;50.944;5.304;2022-12-07T13:37:23;5.20;;;2.73;;
19251;SDS011;9760;50.944;5.304;2022-12-07T13:39:57;9.90;;;3.77;;
19251;SDS011;9760;50.944;5.304;2022-12-07T13:42:31;6.37;;;2.53;;
19251;SDS011;9760;50.944;5.304;2022-12-07T13:44:59;8.43;;;2.33;;
19251;SDS011;9760;50.944;5.304;2022-12-07T13:47:48;5.33;;;2.03;;
19251;SDS011;9760;50.944;5.304;2022-12-07T13:50:25;5.67;;;1.90;;
19251;SDS011;9760;50.944;5.304;2022-12-07T13:52:56;9.13;;;1.80;;
19251;SDS011;9760;50.944;5.304;2022-12-07T13:55:23;6.70;;;1.70;;
19251;SDS011;9760;50.944;5.304;2022-12-07T13:57:49;8.10;;;2.37;;
19251;SDS011;9760;50.944;5.304;2022-12-07T14:02:57;12.33;;;3.77;;
19251;SDS011;9760;50.944;5.304;2022-12-07T14:05:34;8.77;;;3.90;;
19251;SDS011;9760;50.944;5.304;2022-12-07T14:08:03;13.40;;;3.83;;
19251;SDS011;9760;50.944;5.304;2022-12-07T14:10:31;8.43;;;3.77;;
19251;SDS011;9760;50.944;5.304;2022-12-07T14:12:58;7.43;;;3.97;;
19251;SDS011;9760;50.944;5.304;2022-12-07T14:15:29;9.73;;;4.57;;
19251;SDS011;9760;50.944;5.304;2022-12-07T14:17:57;9.73;;;4.53;;
19251;SDS011;9760;50.944;5.304;2022-12-07T14:20:35;19.03;;;5.30;;
19251;SDS011;9760;50.944;5.304;2022-12-07T14:23:19;13.73;;;4.20;;
19251;SDS011;9760;50.944;5.304;2022-12-07T14:25:51;16.23;;;4.83;;
19251;SDS011;9760;50.944;5.304;2022-12-07T14:28:27;13.93;;;4.70;;
19251;SDS011;9760;50.944;5.304;2022-12-07T14:30:54;13.13;;;4.87;;
19251;SDS011;9760;50.944;5.304;2022-12-07T14:33:20;13.50;;;4.97;;
19251;SDS011;9760;50.944;5.304;2022-12-07T14:35:47;13.23;;;4.60;;
19251;SDS011;9760;50.944;5.304;2022-12-07T14:38:12;16.17;;;7.17;;
19251;SDS011;9760;50.944;5.304;2022-12-07T14:40:38;15.23;;;5.33;;
19251;SDS011;9760;50.944;5.304;2022-12-07T14:43:04;21.37;;;6.90;;
19251;SDS011;9760;50.944;5.304;2022-12-07T14:45:34;11.47;;;4.83;;
19251;SDS011;9760;50.944;5.304;2022-12-07T14:47:59;13.93;;;5.13;;
19251;SDS011;9760;50.944;5.304;2022-12-07T14:50:25;17.73;;;6.17;;
19251;SDS011;9760;50.944;5.304;2022-12-07T14:52:52;16.70;;;6.17;;
19251;SDS011;9760;50.944;5.304;2022-12-07T14:55:25;15.87;;;5.40;;
19251;SDS011;9760;50.944;5.304;2022-12-07T14:57:52;16.30;;;5.50;;
19251;SDS011;9760;50.944;5.304;2022-12-07T15:00:18;10.07;;;5.27;;
19251;SDS011;9760;50.944;5.304;2022-12-07T15:02:45;13.87;;;5.73;;
19251;SDS011;9760;50.944;5.304;2022-12-07T15:05:12;17.00;;;5.03;;
19251;SDS011;9760;50.944;5.304;2022-12-07T15:07:38;12.67;;;5.10;;
19251;SDS011;9760;50.944;5.304;2022-12-07T15:10:04;15.93;;;5.43;;
19251;SDS011;9760;50.944;5.304;2022-12-07T15:12:32;12.67;;;5.30;;
19251;SDS011;9760;50.944;5.304;2022-12-07T15:14:57;13.53;;;6.03;;
19251;SDS011;9760;50.944;5.304;2022-12-07T15:17:23;18.93;;;5.40;;
19251;SDS011;9760;50.944;5.304;2022-12-07T15:19:48;13.43;;;6.30;;
19251;SDS011;9760;50.944;5.304;2022-12-07T15:22:14;16.63;;;6.70;;
19251;SDS011;9760;50.944;5.304;2022-12-07T15:24:40;15.07;;;5.20;;
19251;SDS011;9760;50.944;5.304;2022-12-07T15:27:05;13.97;;;5.60;;
19251;SDS011;9760;50.944;5.304;2022-12-07T15:29:31;14.47;;;5.30;;
19251;SDS011;9760;50.944;5.304;2022-12-07T15:31:57;16.53;;;5.83;;
19251;SDS011;9760;50.944;5.304;2022-12-07T15:34:26;16.23;;;6.93;;
19251;SDS011;9760;50.944;5.304;2022-12-07T15:36:53;15.33;;;6.00;;
19251;SDS011;9760;50.944;5.304;2022-12-07T15:39:19;19.47;;;6.77;;
19251;SDS011;9760;50.944;5.304;2022-12-07T15:41:46;13.63;;;6.87;;
19251;SDS011;9760;50.944;5.304;2022-12-07T15:44:12;14.27;;;6.53;;
19251;SDS011;9760;50.944;5.304;2022-12-07T15:46:58;13.50;;;5.53;;
19251;SDS011;9760;50.944;5.304;2022-12-07T15:49:24;15.20;;;6.73;;
19251;SDS011;9760;50.944;5.304;2022-12-07T15:51:50;15.25;;;5.97;;
19251;SDS011;9760;50.944;5.304;2022-12-07T15:54:17;11.50;;;5.00;;
19251;SDS011;9760;50.944;5.304;2022-12-07T15:56:45;10.60;;;4.77;;
19251;SDS011;9760;50.944;5.304;2022-12-07T15:59:11;12.27;;;7.00;;
19251;SDS011;9760;50.944;5.304;2022-12-07T16:01:36;13.50;;;6.83;;
19251;SDS011;9760;50.944;5.304;2022-12-07T16:04:02;9.77;;;5.20;;
19251;SDS011;9760;50.944;5.304;2022-12-07T16:06:28;11.20;;;5.10;;
19251;SDS011;9760;50.944;5.304;2022-12-07T16:08:53;9.17;;;5.13;;
19251;SDS011;9760;50.944;5.304;2022-12-07T16:11:19;7.60;;;3.63;;
19251;SDS011;9760;50.944;5.304;2022-12-07T16:13:45;12.73;;;6.30;;
19251;SDS011;9760;50.944;5.304;2022-12-07T16:16:12;13.00;;;4.37;;
19251;SDS011;9760;50.944;5.304;2022-12-07T16:18:39;5.67;;;3.63;;
19251;SDS011;9760;50.944;5.304;2022-12-07T16:21:06;8.30;;;3.03;;
19251;SDS011;9760;50.944;5.304;2022-12-07T16:23:32;9.80;;;3.30;;
19251;SDS011;9760;50.944;5.304;2022-12-07T16:26:08;4.33;;;3.20;;
19251;SDS011;9760;50.944;5.304;2022-12-07T16:28:36;7.40;;;3.33;;
19251;SDS011;9760;50.944;5.304;2022-12-07T16:31:06;7.03;;;3.37;;
19251;SDS011;9760;50.944;5.304;2022-12-07T16:33:37;7.07;;;3.50;;
19251;SDS011;9760;50.944;5.304;2022-12-07T16:36:04;6.00;;;3.40;;
19251;SDS011;9760;50.944;5.304;2022-12-07T16:38:32;7.80;;;4.17;;
19251;SDS011;9760;50.944;5.304;2022-12-07T16:40:57;22.23;;;5.00;;
19251;SDS011;9760;50.944;5.304;2022-12-07T16:43:23;9.60;;;4.40;;
19251;SDS011;9760;50.944;5.304;2022-12-07T16:45:48;12.37;;;5.83;;
19251;SDS011;9760;50.944;5.304;2022-12-07T16:48:15;12.70;;;5.23;;
19251;SDS011;9760;50.944;5.304;2022-12-07T16:50:41;28.63;;;10.23;;
19251;SDS011;9760;50.944;5.304;2022-12-07T16:53:08;14.03;;;4.33;;
19251;SDS011;9760;50.944;5.304;2022-12-07T16:55:38;9.80;;;4.53;;
19251;SDS011;9760;50.944;5.304;2022-12-07T16:58:07;10.73;;;5.07;;
19251;SDS011;9760;50.944;5.304;2022-12-07T17:00:33;9.70;;;4.33;;
19251;SDS011;9760;50.944;5.304;2022-12-07T17:02:59;12.43;;;5.60;;
19251;SDS011;9760;50.944;5.304;2022-12-07T17:05:27;13.97;;;5.73;;
19251;SDS011;9760;50.944;5.304;2022-12-07T17:07:54;10.43;;;5.30;;
19251;SDS011;9760;50.944;5.304;2022-12-07T17:10:21;13.97;;;5.57;;
19251;SDS011;9760;50.944;5.304;2022-12-07T17:12:47;10.33;;;5.20;;
19251;SDS011;9760;50.944;5.304;2022-12-07T17:15:14;11.23;;;4.83;;